Time;durP1;ratioP1;P1;durP2;ratioP2;P2;SDS_P1;SDS_P2;PMS_P1;PMS_P2;Temp;Humidity;BMP_temperature;BMP_pressure;BME280_temperature;BME280_humidity;BME280_pressure;Samples;Min_cycle;Max_cycle;Signal;HPM_P1;HPM_P2
2024/02/18 00:01:03;;;;;;;14.10;9.60;;;;;;;-146.29;100.00;59205.81;5024514;28;20182;-70
2024/02/18 00:03:28;;;;;;;13.03;9.77;;;;;;;-146.29;100.00;59205.81;5031956;28;20171;-72
2024/02/18 00:05:54;;;;;;;17.77;9.20;;;;;;;-146.29;100.00;59205.81;5024619;28;20176;-70
2024/02/18 00:08:20;;;;;;;10.10;9.00;;;;;;;-146.29;100.00;59205.81;5024343;28;20207;-71
2024/02/18 00:10:45;;;;;;;11.00;8.80;;;;;;;-146.29;100.00;59205.81;5030079;28;20186;-70
2024/02/18 00:13:11;;;;;;;13.30;9.00;;;;;;;-146.29;100.00;59205.81;5032879;28;20730;-71
2024/02/18 00:15:36;;;;;;;12.73;9.20;;;;;;;-146.29;100.00;59205.81;5031418;28;20191;-70
2024/02/18 00:18:02;;;;;;;10.50;8.50;;;;;;;-146.29;100.00;59205.81;5024838;28;20235;-71
2024/02/18 00:20:28;;;;;;;15.43;8.03;;;;;;;-146.29;100.00;59205.81;5028462;28;20198;-70
2024/02/18 00:22:53;;;;;;;12.70;8.53;;;;;;;-146.29;100.00;59205.81;5031445;28;20423;-70
2024/02/18 00:25:19;;;;;;;9.97;8.47;;;;;;;-146.29;100.00;59205.81;5026091;28;20184;-71
2024/02/18 00:27:44;;;;;;;11.20;8.20;;;;;;;-146.29;100.00;59205.81;5024678;28;20234;-71
2024/02/18 00:30:10;;;;;;;18.37;8.20;;;;;;;-146.29;100.00;59205.81;5026921;28;20318;-70
2024/02/18 00:32:36;;;;;;;11.10;8.30;;;;;;;-146.29;100.00;59205.81;5021312;28;20542;-70
2024/02/18 00:35:01;;;;;;;15.73;8.80;;;;;;;-146.29;100.00;59205.81;5024355;28;20437;-70
2024/02/18 00:37:26;;;;;;;11.30;8.40;;;;;;;-146.29;100.00;59205.81;5024855;28;20676;-70
2024/02/18 00:39:52;;;;;;;16.63;8.60;;;;;;;-146.29;100.00;59205.81;5028245;28;21837;-71
2024/02/18 00:42:17;;;;;;;11.77;8.20;;;;;;;-146.29;100.00;59205.81;5035825;28;20191;-73
2024/02/18 00:44:43;;;;;;;15.60;8.43;;;;;;;-146.29;100.00;59205.81;5037367;28;20618;-72
2024/02/18 00:47:08;;;;;;;10.10;7.53;;;;;;;-146.29;100.00;59205.81;5030435;28;20792;-72
2024/02/18 00:49:34;;;;;;;11.80;8.17;;;;;;;-146.29;100.00;59205.81;5042035;28;20199;-71
2024/02/18 00:52:00;;;;;;;12.40;7.90;;;;;;;-146.29;100.00;59205.81;5030751;28;20187;-70
2024/02/18 00:54:25;;;;;;;12.40;8.30;;;;;;;-146.29;100.00;59205.81;5029345;28;20180;-71
2024/02/18 00:56:51;;;;;;;11.00;7.87;;;;;;;-146.29;100.00;59205.81;5033077;28;20198;-70
2024/02/18 00:59:17;;;;;;;9.97;8.20;;;;;;;-146.29;100.00;59205.81;5032190;28;20219;-70
2024/02/18 01:01:42;;;;;;;9.63;7.67;;;;;;;-146.29;100.00;59205.81;5042672;28;20226;-68
2024/02/18 01:04:08;;;;;;;11.60;8.20;;;;;;;-146.29;100.00;59205.81;5037604;28;20176;-67
2024/02/18 01:06:34;;;;;;;12.37;8.43;;;;;;;-146.29;100.00;59205.81;5030334;28;20548;-68
2024/02/18 01:09:00;;;;;;;10.67;8.67;;;;;;;-146.29;100.00;59205.81;5030022;28;20462;-68
2024/02/18 01:11:26;;;;;;;10.83;7.70;;;;;;;-146.29;100.00;59205.81;5035443;28;20258;-69
2024/02/18 01:13:51;;;;;;;12.37;8.30;;;;;;;-146.29;100.00;59205.81;5030556;28;21074;-70
2024/02/18 01:16:17;;;;;;;13.83;9.00;;;;;;;-146.29;100.00;59205.81;5029925;28;20187;-70
2024/02/18 01:18:43;;;;;;;14.70;8.93;;;;;;;-146.29;100.00;59205.81;5042124;28;20235;-70
2024/02/18 01:21:08;;;;;;;13.50;8.20;;;;;;;-146.29;100.00;59205.81;5032403;28;20187;-69
2024/02/18 01:23:34;;;;;;;10.60;8.17;;;;;;;-146.29;100.00;59205.81;5031359;28;20670;-69
2024/02/18 01:26:00;;;;;;;15.30;8.13;;;;;;;-146.29;100.00;59205.81;5030019;28;20184;-69
2024/02/18 01:28:25;;;;;;;12.63;8.23;;;;;;;-146.29;100.00;59205.81;5030637;28;20466;-69
2024/02/18 01:30:51;;;;;;;15.60;7.87;;;;;;;-146.29;100.00;59205.81;5027675;28;20295;-71
2024/02/18 01:33:17;;;;;;;12.77;8.30;;;;;;;-146.29;100.00;59205.81;5029788;28;20187;-69
2024/02/18 01:35:42;;;;;;;9.93;7.60;;;;;;;-146.29;100.00;59205.81;5028915;28;20182;-68
2024/02/18 01:38:09;;;;;;;11.93;8.47;;;;;;;-146.29;100.00;59205.81;5029224;28;20337;-69
2024/02/18 01:40:34;;;;;;;9.83;8.07;;;;;;;-146.29;100.00;59205.81;5035103;28;20219;-69
2024/02/18 01:43:01;;;;;;;9.43;7.97;;;;;;;-146.29;100.00;59205.81;5032948;28;20510;-69
2024/02/18 01:45:26;;;;;;;9.20;7.47;;;;;;;-146.29;100.00;59205.81;5028134;28;20191;-68
2024/02/18 01:47:52;;;;;;;11.00;7.60;;;;;;;-146.29;100.00;59205.81;5039451;28;20842;-69
2024/02/18 01:50:17;;;;;;;8.93;7.40;;;;;;;-146.29;100.00;59205.81;5035782;28;20176;-71
2024/02/18 01:52:44;;;;;;;10.53;8.10;;;;;;;-146.29;100.00;59205.81;5034179;28;20183;-68
2024/02/18 01:55:10;;;;;;;12.33;8.30;;;;;;;-146.29;100.00;59205.81;5034415;28;20656;-68
2024/02/18 01:57:36;;;;;;;9.67;8.30;;;;;;;-146.29;100.00;59205.81;5032564;28;20461;-70
2024/02/18 02:00:03;;;;;;;11.40;8.10;;;;;;;-146.29;100.00;59205.81;5028940;28;20975;-71
2024/02/18 02:02:29;;;;;;;10.17;7.70;;;;;;;-146.29;100.00;59205.81;5039151;28;20484;-70
2024/02/18 02:04:54;;;;;;;9.30;7.80;;;;;;;-146.29;100.00;59205.81;5035237;28;20426;-69
2024/02/18 02:07:21;;;;;;;9.33;7.53;;;;;;;-146.29;100.00;59205.81;5028516;28;20446;-71
2024/02/18 02:09:47;;;;;;;8.60;7.10;;;;;;;-146.29;100.00;59205.81;5031845;28;20175;-70
2024/02/18 02:12:12;;;;;;;11.20;7.50;;;;;;;-146.29;100.00;59205.81;5039903;28;20427;-70
2024/02/18 02:14:38;;;;;;;9.40;7.10;;;;;;;-146.29;100.00;59205.81;5029139;28;20192;-70
2024/02/18 02:17:05;;;;;;;7.57;6.40;;;;;;;-146.29;100.00;59205.81;5027359;28;20179;-69
2024/02/18 02:19:30;;;;;;;11.03;7.57;;;;;;;-146.29;100.00;59205.81;5027610;28;20684;-69
2024/02/18 02:21:55;;;;;;;9.37;7.13;;;;;;;-146.29;100.00;59205.81;5032416;28;20418;-69
2024/02/18 02:24:21;;;;;;;9.57;7.93;;;;;;;-146.29;100.00;59205.81;5031246;28;20724;-70
2024/02/18 02:26:49;;;;;;;9.97;7.40;;;;;;;-146.29;100.00;59205.81;5028732;28;20231;-67
2024/02/18 02:29:15;;;;;;;17.43;7.27;;;;;;;-146.29;100.00;59205.81;5037601;28;20199;-69
2024/02/18 02:31:44;;;;;;;11.10;7.50;;;;;;;-146.29;100.00;59205.81;5028171;28;20426;-70
2024/02/18 02:34:16;;;;;;;12.93;7.60;;;;;;;-146.29;100.00;59205.81;5028437;28;21046;-69
2024/02/18 02:36:41;;;;;;;13.13;7.87;;;;;;;-146.29;100.00;59205.81;5040284;28;20517;-70
2024/02/18 02:39:07;;;;;;;14.40;6.87;;;;;;;-146.29;100.00;59205.81;5035644;28;21016;-70
2024/02/18 02:41:34;;;;;;;9.87;7.17;;;;;;;-146.29;100.00;59205.81;5034269;28;20203;-71
2024/02/18 02:43:59;;;;;;;9.33;7.37;;;;;;;-146.29;100.00;59205.81;5029923;28;20850;-69
2024/02/18 02:46:25;;;;;;;15.17;7.53;;;;;;;-146.29;100.00;59205.81;5041283;28;20445;-70
2024/02/18 02:48:50;;;;;;;8.93;7.23;;;;;;;-146.29;100.00;59205.81;5028584;28;20210;-70
2024/02/18 02:51:16;;;;;;;9.37;7.67;;;;;;;-146.29;100.00;59205.81;5029803;28;20568;-70
2024/02/18 02:53:41;;;;;;;7.60;6.73;;;;;;;-146.29;100.00;59205.81;5025939;28;20179;-69
2024/02/18 02:56:07;;;;;;;13.30;7.63;;;;;;;-146.29;100.00;59205.81;5030933;28;20179;-69
2024/02/18 02:58:32;;;;;;;11.00;6.67;;;;;;;-146.29;100.00;59205.81;5028612;28;20202;-69
2024/02/18 03:00:58;;;;;;;10.67;7.00;;;;;;;-146.29;100.00;59205.81;5027610;28;20180;-69
2024/02/18 03:03:23;;;;;;;7.67;6.87;;;;;;;-146.29;100.00;59205.81;5027569;28;20263;-68
2024/02/18 03:05:49;;;;;;;8.67;7.37;;;;;;;-146.29;100.00;59205.81;5027487;28;20184;-69
2024/02/18 03:08:15;;;;;;;10.50;7.70;;;;;;;-146.29;100.00;59205.81;5027651;28;20290;-69
2024/02/18 03:10:41;;;;;;;11.23;7.67;;;;;;;-146.29;100.00;59205.81;5027698;28;20242;-69
2024/02/18 03:13:07;;;;;;;12.23;7.40;;;;;;;-146.29;100.00;59205.81;5039869;28;20931;-69
2024/02/18 03:15:32;;;;;;;8.30;6.73;;;;;;;-146.29;100.00;59205.81;5029738;28;20569;-69
2024/02/18 03:17:58;;;;;;;10.27;7.30;;;;;;;-146.29;100.00;59205.81;5034928;28;20431;-69
2024/02/18 03:20:23;;;;;;;8.93;6.87;;;;;;;-146.29;100.00;59205.81;5034551;28;20191;-69
2024/02/18 03:22:50;;;;;;;7.43;6.20;;;;;;;-146.29;100.00;59205.81;5027002;28;20171;-69
2024/02/18 03:25:20;;;;;;;9.87;6.77;;;;;;;-146.29;100.00;59205.81;5031699;28;20175;-69
2024/02/18 03:27:46;;;;;;;12.30;6.30;;;;;;;-146.29;100.00;59205.81;5028334;28;20497;-69
2024/02/18 03:30:12;;;;;;;11.57;7.37;;;;;;;-146.29;100.00;59205.81;5027897;28;20888;-70
2024/02/18 03:32:37;;;;;;;7.63;6.40;;;;;;;-146.29;100.00;59205.81;5040507;28;20175;-69
2024/02/18 03:35:04;;;;;;;8.80;7.00;;;;;;;-146.29;100.00;59205.81;5026216;28;20549;-69
2024/02/18 03:37:30;;;;;;;11.73;6.90;;;;;;;-146.29;100.00;59205.81;5027161;28;20171;-69
2024/02/18 03:39:56;;;;;;;12.60;7.20;;;;;;;-146.29;100.00;59205.81;5029491;28;20429;-70
2024/02/18 03:42:21;;;;;;;11.43;6.77;;;;;;;-146.29;100.00;59205.81;5010284;28;20418;-69
2024/02/18 03:44:47;;;;;;;11.03;6.73;;;;;;;-146.29;100.00;59205.81;5009614;28;20184;-69
2024/02/18 03:47:12;;;;;;;10.33;7.40;;;;;;;-146.29;100.00;59205.81;5026287;28;20253;-68
2024/02/18 03:49:38;;;;;;;9.23;7.10;;;;;;;-146.29;100.00;59205.81;5034317;28;20187;-68
2024/02/18 03:52:03;;;;;;;11.43;6.67;;;;;;;-146.29;100.00;59205.81;5033926;28;20195;-69
2024/02/18 03:54:29;;;;;;;11.33;7.80;;;;;;;-146.29;100.00;59205.81;5027441;28;20180;-69
2024/02/18 03:56:55;;;;;;;9.80;7.37;;;;;;;-146.29;100.00;59205.81;5026682;28;20687;-69
2024/02/18 03:59:21;;;;;;;9.70;7.37;;;;;;;-146.29;100.00;59205.81;5036666;28;20974;-71
2024/02/18 04:01:47;;;;;;;10.47;7.47;;;;;;;-146.29;100.00;59205.81;5028036;28;20425;-69
2024/02/18 04:04:13;;;;;;;8.33;7.23;;;;;;;-146.29;100.00;59205.81;5030821;28;20206;-69
2024/02/18 04:06:39;;;;;;;12.33;7.70;;;;;;;-146.29;100.00;59205.81;5031087;28;20425;-69
2024/02/18 04:09:05;;;;;;;12.60;7.70;;;;;;;-146.29;100.00;59205.81;5040892;28;20967;-70
2024/02/18 04:11:31;;;;;;;17.07;7.70;;;;;;;-146.29;100.00;59205.81;5047247;28;20980;-69
2024/02/18 04:13:57;;;;;;;9.80;7.67;;;;;;;-146.29;100.00;59205.81;5041896;28;20433;-70
2024/02/18 04:16:22;;;;;;;10.23;7.20;;;;;;;-146.29;100.00;59205.81;5032633;28;20208;-70
2024/02/18 04:18:48;;;;;;;9.50;7.20;;;;;;;-146.29;100.00;59205.81;5030418;28;20517;-70
2024/02/18 04:21:13;;;;;;;9.53;7.20;;;;;;;-146.29;100.00;59205.81;5030529;28;20278;-69
2024/02/18 04:23:39;;;;;;;10.07;7.70;;;;;;;-146.29;100.00;59205.81;5031789;28;20183;-69
2024/02/18 04:26:04;;;;;;;10.40;8.03;;;;;;;-146.29;100.00;59205.81;5029754;28;20329;-69
2024/02/18 04:28:29;;;;;;;13.07;8.47;;;;;;;-146.29;100.00;59205.81;5029904;28;20214;-69
2024/02/18 04:30:55;;;;;;;10.83;8.50;;;;;;;-146.29;100.00;59205.81;5027046;28;20270;-70
2024/02/18 04:33:20;;;;;;;10.33;8.13;;;;;;;-146.29;100.00;59205.81;5029942;28;20201;-74
2024/02/18 04:35:46;;;;;;;9.37;7.80;;;;;;;-146.29;100.00;59205.81;5033105;28;20259;-70
2024/02/18 04:38:11;;;;;;;8.53;7.53;;;;;;;-146.29;100.00;59205.81;5029837;28;20311;-69
2024/02/18 04:40:37;;;;;;;11.30;7.93;;;;;;;-146.29;100.00;59205.81;5030944;28;20188;-70
2024/02/18 04:43:02;;;;;;;9.70;7.43;;;;;;;-146.29;100.00;59205.81;5029583;28;20665;-70
2024/02/18 04:45:28;;;;;;;10.23;7.53;;;;;;;-146.29;100.00;59205.81;5033356;28;20626;-69
2024/02/18 04:47:53;;;;;;;9.80;7.50;;;;;;;-146.29;100.00;59205.81;5029423;28;20214;-69
2024/02/18 04:50:19;;;;;;;10.37;7.40;;;;;;;-146.29;100.00;59205.81;5036087;28;20176;-72
2024/02/18 04:52:44;;;;;;;11.10;7.60;;;;;;;-146.29;100.00;59205.81;5029167;28;20180;-69
2024/02/18 04:55:10;;;;;;;12.03;8.60;;;;;;;-146.29;100.00;59205.81;5029406;28;20266;-69
2024/02/18 04:57:35;;;;;;;12.67;9.53;;;;;;;-146.29;100.00;59205.81;5028434;28;20728;-68
2024/02/18 05:00:00;;;;;;;13.17;9.57;;;;;;;-146.29;100.00;59205.81;5028905;28;20172;-70
2024/02/18 05:02:26;;;;;;;12.07;8.63;;;;;;;-146.29;100.00;59205.81;5032144;28;20171;-70
2024/02/18 05:04:51;;;;;;;16.10;9.60;;;;;;;-146.29;100.00;59205.81;5032070;28;20657;-70
2024/02/18 05:07:17;;;;;;;11.20;9.60;;;;;;;-146.29;100.00;59205.81;5031662;28;20297;-69
2024/02/18 05:09:42;;;;;;;12.57;9.87;;;;;;;-146.29;100.00;59205.81;5033803;28;20799;-69
2024/02/18 05:12:08;;;;;;;10.60;8.70;;;;;;;-146.29;100.00;59205.81;5035816;28;20308;-71
2024/02/18 05:14:33;;;;;;;10.97;8.20;;;;;;;-146.29;100.00;59205.81;5032278;28;20202;-70
2024/02/18 05:16:59;;;;;;;13.60;9.60;;;;;;;-146.29;100.00;59205.81;5033885;28;20701;-69
2024/02/18 05:19:28;;;;;;;11.07;8.80;;;;;;;-146.29;100.00;59205.81;5033314;28;20199;-70
2024/02/18 05:21:54;;;;;;;11.83;8.30;;;;;;;-146.29;100.00;59205.81;5039743;28;20476;-68
2024/02/18 05:24:20;;;;;;;15.07;8.27;;;;;;;-146.29;100.00;59205.81;5036240;28;20431;-70
2024/02/18 05:26:45;;;;;;;13.43;8.80;;;;;;;-146.29;100.00;59205.81;5030763;28;20514;-69
2024/02/18 05:29:11;;;;;;;9.77;7.73;;;;;;;-146.29;100.00;59205.81;5038959;28;20208;-69
2024/02/18 05:31:36;;;;;;;10.27;8.90;;;;;;;-146.29;100.00;59205.81;5033226;28;20189;-69
2024/02/18 05:34:02;;;;;;;10.67;8.93;;;;;;;-146.29;100.00;59205.81;5035013;28;20184;-69
2024/02/18 05:36:27;;;;;;;14.60;9.60;;;;;;;-146.29;100.00;59205.81;5037110;28;20236;-70
2024/02/18 05:38:53;;;;;;;12.40;10.00;;;;;;;-146.29;100.00;59205.81;5034819;28;20298;-68
2024/02/18 05:41:18;;;;;;;14.47;8.80;;;;;;;-146.29;100.00;59205.81;5035822;28;20182;-69
2024/02/18 05:43:44;;;;;;;10.10;8.23;;;;;;;-146.29;100.00;59205.81;5041041;28;20659;-69
2024/02/18 05:46:10;;;;;;;11.50;8.23;;;;;;;-146.29;100.00;59205.81;5029342;28;20180;-68
2024/02/18 05:48:37;;;;;;;10.00;8.23;;;;;;;-146.29;100.00;59205.81;5032577;28;20212;-69
2024/02/18 05:51:03;;;;;;;15.03;9.40;;;;;;;-146.29;100.00;59205.81;5030664;28;21172;-69
2024/02/18 05:53:28;;;;;;;10.93;7.83;;;;;;;-146.29;100.00;59205.81;5030000;28;20445;-69
2024/02/18 05:55:54;;;;;;;13.60;9.27;;;;;;;-146.29;100.00;59205.81;5033524;28;20279;-69
2024/02/18 05:58:19;;;;;;;12.77;8.50;;;;;;;-146.29;100.00;59205.81;5036649;28;20194;-68
2024/02/18 06:00:45;;;;;;;13.07;8.23;;;;;;;-146.29;100.00;59205.81;5035570;28;20179;-68
2024/02/18 06:03:10;;;;;;;10.10;8.07;;;;;;;-146.29;100.00;59205.81;5031220;28;20411;-69
2024/02/18 06:05:36;;;;;;;11.10;8.40;;;;;;;-146.29;100.00;59205.81;5029924;28;20547;-69
2024/02/18 06:08:01;;;;;;;11.60;7.90;;;;;;;-146.29;100.00;59205.81;5034782;28;20207;-69
2024/02/18 06:10:28;;;;;;;10.67;9.10;;;;;;;-146.29;100.00;59205.81;5032122;28;20208;-69
2024/02/18 06:12:54;;;;;;;11.33;8.27;;;;;;;-146.29;100.00;59205.81;5033850;28;20246;-69
2024/02/18 06:15:19;;;;;;;18.10;8.47;;;;;;;-146.29;100.00;59205.81;5031589;28;20438;-69
2024/02/18 06:17:45;;;;;;;10.60;8.90;;;;;;;-146.29;100.00;59205.81;5034222;28;20195;-70
2024/02/18 06:20:12;;;;;;;12.13;8.97;;;;;;;-146.29;100.00;59205.81;5038470;28;20259;-68
2024/02/18 06:22:38;;;;;;;10.67;8.70;;;;;;;-146.29;100.00;59205.81;5034004;28;20648;-68
2024/02/18 06:25:05;;;;;;;15.87;10.00;;;;;;;-146.29;100.00;59205.81;5035572;28;20450;-69
2024/02/18 06:27:30;;;;;;;14.47;10.33;;;;;;;-146.29;100.00;59205.81;5032253;28;20485;-69
2024/02/18 06:29:56;;;;;;;14.17;9.90;;;;;;;-146.29;100.00;59205.81;5027770;28;20865;-69
2024/02/18 06:32:21;;;;;;;14.40;10.03;;;;;;;-146.29;100.00;59205.81;5030978;28;20187;-69
2024/02/18 06:34:46;;;;;;;12.10;9.63;;;;;;;-146.29;100.00;59205.81;5030475;28;20253;-68
2024/02/18 06:37:12;;;;;;;15.40;11.63;;;;;;;-146.29;100.00;59205.81;5028716;28;20179;-69
2024/02/18 06:39:38;;;;;;;15.30;10.97;;;;;;;-146.29;100.00;59205.81;5038341;28;20336;-69
2024/02/18 06:42:03;;;;;;;17.27;11.60;;;;;;;-146.29;100.00;59205.81;5032405;28;20225;-69
2024/02/18 06:44:29;;;;;;;16.47;11.47;;;;;;;-146.29;100.00;59205.81;5032504;28;20222;-70
2024/02/18 06:46:54;;;;;;;16.23;11.20;;;;;;;-146.29;100.00;59205.81;5032933;28;20656;-70
2024/02/18 06:49:20;;;;;;;14.83;11.60;;;;;;;-146.29;100.00;59205.81;5031509;28;20294;-69
2024/02/18 06:51:45;;;;;;;20.70;11.80;;;;;;;-146.29;100.00;59205.81;5028121;28;20179;-69
2024/02/18 06:54:11;;;;;;;15.67;12.00;;;;;;;-146.29;100.00;59205.81;5030755;28;20703;-70
2024/02/18 06:56:36;;;;;;;13.90;11.60;;;;;;;-146.29;100.00;59205.81;5033034;28;20621;-70
2024/02/18 06:59:01;;;;;;;15.67;11.27;;;;;;;-146.29;100.00;59205.81;5036900;28;20274;-69
2024/02/18 07:01:27;;;;;;;17.20;12.07;;;;;;;-146.29;100.00;59205.81;5032219;28;20184;-71
2024/02/18 07:03:52;;;;;;;16.03;12.50;;;;;;;-146.29;100.00;59205.81;5034736;28;20203;-71
2024/02/18 07:06:18;;;;;;;15.07;12.63;;;;;;;-146.29;100.00;59205.81;5030881;28;20196;-69
2024/02/18 07:08:46;;;;;;;18.93;13.90;;;;;;;-146.29;100.00;59205.81;5029832;28;20215;-71
2024/02/18 07:11:13;;;;;;;13.30;10.93;;;;;;;-146.29;100.00;59205.81;5026853;28;20533;-68
2024/02/18 07:13:39;;;;;;;16.30;12.67;;;;;;;-146.29;100.00;59205.81;5012484;28;20781;-69
2024/02/18 07:16:04;;;;;;;15.17;11.30;;;;;;;-146.29;100.00;59205.81;5029442;28;20425;-70
2024/02/18 07:18:30;;;;;;;18.63;12.30;;;;;;;-146.29;100.00;59205.81;5034127;28;20203;-69
2024/02/18 07:20:55;;;;;;;18.30;12.50;;;;;;;-146.29;100.00;59205.81;5037390;28;20579;-70
2024/02/18 07:23:21;;;;;;;14.90;12.20;;;;;;;-146.29;100.00;59205.81;5029763;28;20229;-69
2024/02/18 07:25:46;;;;;;;19.20;12.20;;;;;;;-146.29;100.00;59205.81;5028920;28;20247;-69
2024/02/18 07:28:12;;;;;;;18.03;14.10;;;;;;;-146.29;100.00;59205.81;5031012;28;20199;-70
2024/02/18 07:30:37;;;;;;;23.10;14.40;;;;;;;-146.29;100.00;59205.81;5031983;28;20187;-69
2024/02/18 07:33:03;;;;;;;17.30;13.43;;;;;;;-146.29;100.00;59205.81;5038831;28;20325;-69
2024/02/18 07:35:29;;;;;;;26.90;12.80;;;;;;;-146.29;100.00;59205.81;5030112;28;20244;-71
2024/02/18 07:37:57;;;;;;;16.50;12.53;;;;;;;-146.29;100.00;59205.81;5030383;28;20444;-70
2024/02/18 07:40:23;;;;;;;17.40;12.97;;;;;;;-146.29;100.00;59205.81;5032503;28;20180;-71
2024/02/18 07:42:48;;;;;;;15.90;12.53;;;;;;;-146.29;100.00;59205.81;5034198;28;20418;-68
2024/02/18 07:45:14;;;;;;;14.20;11.13;;;;;;;-146.29;100.00;59205.81;5032929;28;20178;-69
2024/02/18 07:47:39;;;;;;;14.87;11.20;;;;;;;-146.29;100.00;59205.81;5040479;28;20201;-70
2024/02/18 07:50:07;;;;;;;16.10;12.13;;;;;;;-146.29;100.00;59205.81;5035992;28;20207;-69
2024/02/18 07:52:33;;;;;;;17.20;12.43;;;;;;;-146.29;100.00;59205.81;5033355;28;20195;-68
2024/02/18 07:54:59;;;;;;;16.00;11.57;;;;;;;-146.29;100.00;59205.81;5040536;28;20978;-70
2024/02/18 07:57:24;;;;;;;14.80;11.13;;;;;;;-146.29;100.00;59205.81;5036659;28;20423;-70
2024/02/18 07:59:50;;;;;;;17.53;12.50;;;;;;;-146.29;100.00;59205.81;5041454;28;20321;-69
2024/02/18 08:02:16;;;;;;;15.50;11.90;;;;;;;-146.29;100.00;59205.81;5035959;28;20214;-70
2024/02/18 08:04:41;;;;;;;17.77;11.50;;;;;;;-146.29;100.00;59205.81;5041380;28;20421;-70
2024/02/18 08:07:07;;;;;;;15.27;12.30;;;;;;;-146.29;100.00;59205.81;5040781;28;20235;-70
2024/02/18 08:09:32;;;;;;;14.60;11.50;;;;;;;-146.29;100.00;59205.81;5034445;28;20207;-71
2024/02/18 08:11:58;;;;;;;17.93;12.10;;;;;;;-146.29;100.00;59205.81;5030679;28;20191;-68
2024/02/18 08:14:23;;;;;;;16.50;12.27;;;;;;;-146.29;100.00;59205.81;5035916;28;20568;-70
2024/02/18 08:16:48;;;;;;;15.40;10.97;;;;;;;-146.29;100.00;59205.81;5036004;28;20192;-69
2024/02/18 08:19:14;;;;;;;16.77;12.07;;;;;;;-146.29;100.00;59205.81;5037760;28;20183;-69
2024/02/18 08:21:39;;;;;;;15.53;11.60;;;;;;;-146.29;100.00;59205.81;5033829;28;20265;-69
2024/02/18 08:24:05;;;;;;;13.17;11.40;;;;;;;-146.29;100.00;59205.81;5038653;28;20206;-69
2024/02/18 08:26:31;;;;;;;15.80;11.30;;;;;;;-146.29;100.00;59205.81;5036449;28;20215;-70
2024/02/18 08:28:56;;;;;;;16.20;11.30;;;;;;;-146.29;100.00;59205.81;5031455;28;20211;-71
2024/02/18 08:31:22;;;;;;;12.60;10.93;;;;;;;-146.29;100.00;59205.81;5036422;28;20283;-69
2024/02/18 08:33:48;;;;;;;14.80;11.00;;;;;;;-146.29;100.00;59205.81;5030888;28;20625;-70
2024/02/18 08:36:13;;;;;;;12.60;10.20;;;;;;;-146.29;100.00;59205.81;5036206;28;20691;-69
2024/02/18 08:38:39;;;;;;;13.67;10.20;;;;;;;-146.29;100.00;59205.81;5035490;28;20434;-69
2024/02/18 08:41:05;;;;;;;17.60;11.13;;;;;;;-146.29;100.00;59205.81;5035540;28;20672;-69
2024/02/18 08:43:31;;;;;;;13.93;10.73;;;;;;;-146.29;100.00;59205.81;5030337;28;20205;-71
2024/02/18 08:45:57;;;;;;;16.07;10.93;;;;;;;-146.29;100.00;59205.81;5040785;28;20425;-71
2024/02/18 08:48:22;;;;;;;11.37;10.17;;;;;;;-146.29;100.00;59205.81;5040214;28;20297;-70
2024/02/18 08:50:47;;;;;;;14.50;10.73;;;;;;;-146.29;100.00;59205.81;5033837;28;20183;-71
2024/02/18 08:53:13;;;;;;;12.23;10.93;;;;;;;-146.29;100.00;59205.81;5035632;28;20191;-71
2024/02/18 08:55:39;;;;;;;12.00;9.57;;;;;;;-146.29;100.00;59205.81;5031984;28;20198;-72
2024/02/18 08:58:04;;;;;;;12.83;9.53;;;;;;;-146.29;100.00;59205.81;5031716;28;20207;-72
2024/02/18 09:00:29;;;;;;;13.03;10.37;;;;;;;-146.29;100.00;59205.81;5042044;28;20186;-72
2024/02/18 09:02:55;;;;;;;13.23;10.57;;;;;;;-146.29;100.00;59205.81;5034144;28;20708;-72
2024/02/18 09:05:22;;;;;;;13.87;10.93;;;;;;;-146.29;100.00;59205.81;5032482;28;20188;-71
2024/02/18 09:07:48;;;;;;;14.87;11.03;;;;;;;-146.29;100.00;59205.81;5039290;28;20321;-71
2024/02/18 09:10:14;;;;;;;14.03;10.30;;;;;;;-146.29;100.00;59205.81;5036570;28;20464;-71
2024/02/18 09:12:39;;;;;;;14.17;12.03;;;;;;;-146.29;100.00;59205.81;5036084;28;20209;-72
2024/02/18 09:15:05;;;;;;;13.93;10.60;;;;;;;-146.29;100.00;59205.81;5031825;28;20645;-71
2024/02/18 09:17:31;;;;;;;13.43;10.50;;;;;;;-146.29;100.00;59205.81;5032360;28;20180;-73
2024/02/18 09:19:56;;;;;;;11.50;10.17;;;;;;;-146.29;100.00;59205.81;5031198;28;20415;-69
2024/02/18 09:22:21;;;;;;;10.70;9.57;;;;;;;-146.29;100.00;59205.81;5029525;28;20183;-71
2024/02/18 09:24:47;;;;;;;12.50;9.93;;;;;;;-146.29;100.00;59205.81;5033293;28;20665;-71
2024/02/18 09:27:12;;;;;;;11.50;8.50;;;;;;;-146.29;100.00;59205.81;5029346;28;20267;-70
2024/02/18 09:29:38;;;;;;;7.83;7.00;;;;;;;-146.29;100.00;59205.81;5029096;28;20215;-72
2024/02/18 09:32:04;;;;;;;6.77;6.07;;;;;;;-146.29;100.00;59205.81;5037029;28;20204;-71
2024/02/18 09:34:31;;;;;;;7.87;6.53;;;;;;;-146.29;100.00;59205.81;5040203;28;20191;-71
2024/02/18 09:36:56;;;;;;;7.60;6.80;;;;;;;-146.29;100.00;59205.81;5034743;28;20183;-70
2024/02/18 09:39:22;;;;;;;8.20;5.87;;;;;;;-146.29;100.00;59205.81;5020985;28;20515;-70
2024/02/18 09:41:48;;;;;;;6.07;5.13;;;;;;;-146.29;100.00;59205.81;5029410;28;20191;-70
2024/02/18 09:44:14;;;;;;;7.23;5.80;;;;;;;-146.29;100.00;59205.81;5029761;28;20179;-70
2024/02/18 09:46:40;;;;;;;6.57;5.53;;;;;;;-146.29;100.00;59205.81;5041545;28;20439;-70
2024/02/18 09:49:08;;;;;;;6.80;5.43;;;;;;;-146.29;100.00;59205.81;5036301;28;20703;-70
2024/02/18 09:51:35;;;;;;;5.93;5.17;;;;;;;-146.29;100.00;59205.81;5024006;28;20431;-71
2024/02/18 09:54:04;;;;;;;9.70;6.13;;;;;;;-146.29;100.00;59205.81;5028464;28;20433;-71
2024/02/18 09:56:30;;;;;;;8.13;6.30;;;;;;;-146.29;100.00;59205.81;5025541;28;20426;-72
2024/02/18 09:58:55;;;;;;;7.83;5.60;;;;;;;-146.29;100.00;59205.81;5033972;28;20786;-72
2024/02/18 10:01:22;;;;;;;7.97;5.70;;;;;;;-146.29;100.00;59205.81;5025749;28;20263;-71
2024/02/18 10:03:48;;;;;;;5.80;4.90;;;;;;;-146.29;100.00;59205.81;5022596;28;20188;-72
2024/02/18 10:06:14;;;;;;;5.93;5.43;;;;;;;-146.29;100.00;59205.81;5037227;28;21107;-70
2024/02/18 10:08:41;;;;;;;7.47;6.03;;;;;;;-146.29;100.00;59205.81;5028317;28;21054;-71
2024/02/18 10:11:07;;;;;;;6.73;5.03;;;;;;;-146.29;100.00;59205.81;5036061;28;20422;-70
2024/02/18 10:13:33;;;;;;;10.10;5.93;;;;;;;-146.29;100.00;59205.81;5033690;28;20487;-71
2024/02/18 10:15:58;;;;;;;6.87;5.50;;;;;;;-146.29;100.00;59205.81;5026137;28;20176;-72
2024/02/18 10:18:24;;;;;;;7.60;5.03;;;;;;;-146.29;100.00;59205.81;5031096;28;20207;-71
2024/02/18 10:20:49;;;;;;;6.80;5.67;;;;;;;-146.29;100.00;59205.81;5031513;28;20187;-72
2024/02/18 10:23:15;;;;;;;8.23;6.20;;;;;;;-146.29;100.00;59205.81;5031012;28;20249;-71
2024/02/18 10:25:41;;;;;;;8.80;5.80;;;;;;;-146.29;100.00;59205.81;5028418;28;20222;-71
2024/02/18 10:28:06;;;;;;;7.33;5.93;;;;;;;-146.29;100.00;59205.81;5030616;28;21009;-70
2024/02/18 10:30:32;;;;;;;7.27;5.27;;;;;;;-146.29;100.00;59205.81;5027459;28;20196;-72
2024/02/18 10:32:57;;;;;;;5.70;5.07;;;;;;;-146.29;100.00;59205.81;5028760;28;20188;-71
2024/02/18 10:35:23;;;;;;;5.40;4.90;;;;;;;-146.29;100.00;59205.81;5027773;28;20699;-71
2024/02/18 10:37:56;;;;;;;5.77;4.87;;;;;;;-146.29;100.00;59205.81;5026414;28;20204;-70
2024/02/18 10:40:38;;;;;;;6.40;5.33;;;;;;;-146.29;100.00;59205.81;5026203;28;20201;-71
2024/02/18 10:43:05;;;;;;;6.57;4.77;;;;;;;-146.29;100.00;59205.81;5022662;28;20502;-71
2024/02/18 10:45:30;;;;;;;6.43;4.60;;;;;;;-146.29;100.00;59205.81;5034968;28;20433;-72
2024/02/18 10:47:59;;;;;;;7.90;5.87;;;;;;;-146.29;100.00;59205.81;5025480;28;20458;-74
2024/02/18 10:50:30;;;;;;;6.50;4.70;;;;;;;-146.29;100.00;59205.81;5033981;28;20184;-72
2024/02/18 10:53:14;;;;;;;10.20;4.83;;;;;;;-146.29;100.00;59205.81;5028716;28;20852;-72
2024/02/18 10:55:46;;;;;;;5.13;4.63;;;;;;;-146.29;100.00;59205.81;5028535;28;20522;-73